createdAt,value
2018-08-19T00:02:46.797Z,2.10
2018-08-19T00:05:52.038Z,2.60
2018-08-19T00:09:01.578Z,2.27
2018-08-19T00:12:06.512Z,2.30
2018-08-19T00:15:11.487Z,2.50
2018-08-19T00:18:16.404Z,2.43
2018-08-19T00:21:21.305Z,1.93
2018-08-19T00:24:26.217Z,2.40
2018-08-19T00:27:31.148Z,2.40
2018-08-19T00:30:36.084Z,2.20
2018-08-19T00:33:41.016Z,2.43
2018-08-19T00:36:45.909Z,2.53
2018-08-19T00:39:52.128Z,2.27
2018-08-19T00:42:57.369Z,2.50
2018-08-19T00:46:13.080Z,2.50
2018-08-19T00:49:17.989Z,2.30
2018-08-19T00:52:22.888Z,2.37
2018-08-19T00:55:31.005Z,2.50
2018-08-19T00:58:37.585Z,2.33
2018-08-19T01:01:44.044Z,2.20
2018-08-19T01:04:49.898Z,2.50
2018-08-19T01:07:54.788Z,2.27
2018-08-19T01:10:59.721Z,2.50
2018-08-19T01:14:07.508Z,2.17
2018-08-19T01:17:12.413Z,2.73
2018-08-19T01:20:19.336Z,2.23
2018-08-19T01:23:24.270Z,2.73
2018-08-19T01:26:32.468Z,2.20
2018-08-19T01:29:42.748Z,2.20
2018-08-19T01:32:47.757Z,3.07
2018-08-19T01:35:52.684Z,2.63
2018-08-19T01:38:57.758Z,2.80
2018-08-19T01:42:02.721Z,2.60
2018-08-19T01:45:08.633Z,2.60
2018-08-19T01:48:13.508Z,2.50
2018-08-19T01:51:18.425Z,2.17
2018-08-19T01:54:23.877Z,2.40
2018-08-19T01:57:34.550Z,2.63
2018-08-19T02:00:39.500Z,2.50
2018-08-19T02:03:45.013Z,2.87
2018-08-19T02:06:49.964Z,2.87
2018-08-19T02:10:03.154Z,2.70
2018-08-19T02:13:08.045Z,2.57
2018-08-19T02:16:12.984Z,2.70
2018-08-19T02:19:17.933Z,2.90
2018-08-19T02:22:22.833Z,2.70
2018-08-19T02:25:36.053Z,2.77
2018-08-19T02:28:40.941Z,3.00
2018-08-19T02:31:45.829Z,2.57
2018-08-19T02:34:50.757Z,2.90
2018-08-19T02:37:55.689Z,3.40
2018-08-19T02:41:00.637Z,3.00
2018-08-19T02:44:05.869Z,2.73
2018-08-19T02:47:10.784Z,3.00
2018-08-19T02:50:28.656Z,2.90
2018-08-19T02:53:33.589Z,3.23
2018-08-19T02:56:38.626Z,2.43
2018-08-19T02:59:43.552Z,2.83
2018-08-19T03:02:48.432Z,3.00
2018-08-19T03:05:55.861Z,3.07
2018-08-19T03:09:00.802Z,3.03
2018-08-19T03:12:08.734Z,2.97
2018-08-19T03:15:14.894Z,3.20
2018-08-19T03:18:19.746Z,3.00
2018-08-19T03:21:24.709Z,3.30
2018-08-19T03:24:29.622Z,3.03
2018-08-19T03:27:34.504Z,3.20
2018-08-19T03:30:45.540Z,3.27
2018-08-19T03:33:50.450Z,3.10
2018-08-19T03:36:56.377Z,3.13
2018-08-19T03:40:01.257Z,3.30
2018-08-19T03:43:06.193Z,3.10
2018-08-19T03:46:16.837Z,3.00
2018-08-19T03:49:22.544Z,2.87
2018-08-19T03:52:27.465Z,3.57
2018-08-19T03:55:33.005Z,3.57
2018-08-19T03:58:37.888Z,2.97
2018-08-19T04:01:44.760Z,3.27
2018-08-19T04:04:49.653Z,3.73
2018-08-19T04:07:54.549Z,3.60
2018-08-19T04:10:59.468Z,3.30
2018-08-19T04:14:19.261Z,3.80
2018-08-19T04:17:24.182Z,3.30
2018-08-19T04:20:29.061Z,3.87
2018-08-19T04:23:34.474Z,3.97
2018-08-19T04:26:39.357Z,3.50
2018-08-19T04:29:44.277Z,3.20
2018-08-19T04:32:49.205Z,3.47
2018-08-19T04:35:54.092Z,3.37
2018-08-19T04:38:58.992Z,3.23
2018-08-19T04:42:03.929Z,3.17
2018-08-19T04:45:08.846Z,3.13
2018-08-19T04:48:13.740Z,3.80
2018-08-19T04:51:18.630Z,3.83
2018-08-19T04:54:23.551Z,3.33
2018-08-19T04:57:28.457Z,3.90
2018-08-19T05:00:33.357Z,2.77
2018-08-19T05:03:38.281Z,3.57
2018-08-19T05:06:43.161Z,3.10
2018-08-19T05:09:48.080Z,3.60
2018-08-19T05:12:53.225Z,3.30
2018-08-19T05:15:59.780Z,3.77
2018-08-19T05:19:04.847Z,3.47
2018-08-19T05:22:17.416Z,3.60
2018-08-19T05:25:30.322Z,3.53
2018-08-19T05:28:35.225Z,3.27
2018-08-19T05:31:44.100Z,3.20
2018-08-19T05:34:49.021Z,3.30
2018-08-19T05:37:54.751Z,3.70
2018-08-19T05:41:00.670Z,3.60
2018-08-19T05:44:05.581Z,3.57
2018-08-19T05:47:11.822Z,3.13
2018-08-19T05:50:16.713Z,3.20
2018-08-19T05:53:21.871Z,3.30
2018-08-19T05:56:26.843Z,3.30
2018-08-19T05:59:31.769Z,3.03
2018-08-19T06:02:41.517Z,3.57
2018-08-19T06:05:46.414Z,3.13
2018-08-19T06:08:52.661Z,3.00
2018-08-19T06:11:57.582Z,3.10
2018-08-19T06:15:02.579Z,2.70
2018-08-19T06:18:08.332Z,2.70
2018-08-19T06:21:13.297Z,2.70
2018-08-19T06:24:20.433Z,2.93
2018-08-19T06:27:29.937Z,3.13
2018-08-19T06:30:34.877Z,2.60
2018-08-19T06:33:39.807Z,2.80
2018-08-19T06:36:44.725Z,2.70
2018-08-19T06:39:50.741Z,2.47
2018-08-19T06:42:55.671Z,2.50
2018-08-19T06:46:00.597Z,2.20
2018-08-19T06:49:12.065Z,2.70
2018-08-19T06:52:17.243Z,2.47
2018-08-19T06:55:22.374Z,2.20
2018-08-19T06:58:27.401Z,2.80
2018-08-19T07:01:32.360Z,2.13
2018-08-19T07:04:45.987Z,2.67
2018-08-19T07:07:50.961Z,2.87
2018-08-19T07:10:55.984Z,3.03
2018-08-19T07:14:00.941Z,3.80
2018-08-19T07:17:06.181Z,3.60
2018-08-19T07:20:11.125Z,3.97
2018-08-19T07:23:16.064Z,4.50
2018-08-19T07:26:21.017Z,3.67
2018-08-19T07:29:27.316Z,4.20
2018-08-19T07:32:32.237Z,3.27
2018-08-19T07:35:37.220Z,3.87
2018-08-19T07:38:42.157Z,4.00
2018-08-19T07:41:54.440Z,3.37
2018-08-19T07:45:03.257Z,3.00
2018-08-19T07:48:08.251Z,3.20
2018-08-19T07:51:13.256Z,3.13
2018-08-19T07:54:18.161Z,3.00
2018-08-19T07:57:24.589Z,2.70
2018-08-19T08:00:35.596Z,3.10
2018-08-19T08:03:40.525Z,2.67
2018-08-19T08:06:45.460Z,2.80
2018-08-19T08:09:50.402Z,2.80
2018-08-19T08:12:59.934Z,2.43
2018-08-19T08:16:04.922Z,3.00
2018-08-19T08:19:09.944Z,2.70
2018-08-19T08:22:15.008Z,2.50
2018-08-19T08:25:19.953Z,2.73
2018-08-19T08:28:24.920Z,2.83
2018-08-19T08:31:29.858Z,2.60
2018-08-19T08:34:35.085Z,2.60
2018-08-19T08:37:40.936Z,2.20
2018-08-19T08:40:46.005Z,2.40
2018-08-19T08:43:51.117Z,2.40
2018-08-19T08:46:59.243Z,2.47
2018-08-19T08:50:04.284Z,1.87
2018-08-19T08:53:09.265Z,2.30
2018-08-19T08:56:14.402Z,2.13
2018-08-19T08:59:19.364Z,1.90
2018-08-19T09:02:24.428Z,2.10
2018-08-19T09:05:29.450Z,2.43
2018-08-19T09:08:34.441Z,1.80
2018-08-19T09:11:39.416Z,1.47
2018-08-19T09:14:44.664Z,2.10
2018-08-19T09:17:49.838Z,1.63
2018-08-19T09:20:54.932Z,1.63
2018-08-19T09:23:59.940Z,1.70
2018-08-19T09:27:04.985Z,1.63
2018-08-19T09:30:13.494Z,1.87
2018-08-19T09:33:18.493Z,1.50
2018-08-19T09:36:23.456Z,1.57
2018-08-19T09:39:28.900Z,1.47
2018-08-19T09:42:33.899Z,1.50
2018-08-19T09:45:39.207Z,1.63
2018-08-19T09:48:44.169Z,2.93
2018-08-19T09:51:49.129Z,1.83
2018-08-19T09:54:57.185Z,1.93
2018-08-19T09:58:02.220Z,1.40
2018-08-19T10:01:12.993Z,1.50
2018-08-19T10:04:24.060Z,1.60
2018-08-19T10:07:29.120Z,1.10
2018-08-19T10:10:35.264Z,1.40
2018-08-19T10:13:40.269Z,1.40
2018-08-19T10:16:46.153Z,1.30
2018-08-19T10:19:51.101Z,1.40
2018-08-19T10:22:56.789Z,1.33
2018-08-19T10:26:01.717Z,1.73
2018-08-19T10:29:06.965Z,2.73
2018-08-19T10:32:11.986Z,1.50
2018-08-19T10:35:18.418Z,1.40
2018-08-19T10:38:23.369Z,1.63
2018-08-19T10:41:28.312Z,2.10
2018-08-19T10:44:33.236Z,1.80
2018-08-19T10:47:38.193Z,1.50
2018-08-19T10:50:43.130Z,1.70
2018-08-19T10:53:48.036Z,1.50
2018-08-19T10:56:53.572Z,1.50
2018-08-19T10:59:59.133Z,1.70
2018-08-19T11:03:23.091Z,1.40
2018-08-19T11:06:28.077Z,1.50
2018-08-19T11:09:43.340Z,1.80
2018-08-19T11:12:51.734Z,1.50
2018-08-19T11:15:57.685Z,1.70
2018-08-19T11:19:02.616Z,1.80
2018-08-19T11:22:07.497Z,1.70
2018-08-19T11:25:12.488Z,1.63
2018-08-19T11:28:23.604Z,1.70
2018-08-19T11:31:33.028Z,1.40
2018-08-19T11:34:37.874Z,1.43
2018-08-19T11:37:42.793Z,1.97
2018-08-19T11:40:47.953Z,1.70
2018-08-19T11:43:52.939Z,1.80
2018-08-19T11:46:57.861Z,1.47
2018-08-19T11:50:02.909Z,1.80
2018-08-19T11:53:07.864Z,1.90
2018-08-19T11:56:13.585Z,1.57
2018-08-19T11:59:18.540Z,1.77
2018-08-19T12:02:24.329Z,1.50
2018-08-19T12:05:29.258Z,1.90
2018-08-19T12:08:34.152Z,1.50
2018-08-19T12:11:40.159Z,1.67
2018-08-19T12:14:45.118Z,1.60
2018-08-19T12:17:50.020Z,1.63
2018-08-19T12:20:54.921Z,1.90
2018-08-19T12:24:14.375Z,1.73
2018-08-19T12:27:21.448Z,1.90
2018-08-19T12:30:30.344Z,1.80
2018-08-19T12:33:35.292Z,1.70
2018-08-19T12:36:40.245Z,1.63
2018-08-19T12:39:45.488Z,1.73
2018-08-19T12:42:53.536Z,1.47
2018-08-19T12:45:59.121Z,1.57
2018-08-19T12:49:04.249Z,2.10
2018-08-19T12:52:10.547Z,1.80
2018-08-19T12:55:15.901Z,1.73
2018-08-19T12:58:20.936Z,1.80
2018-08-19T13:01:25.884Z,1.70
2018-08-19T13:04:30.861Z,2.30
2018-08-19T13:07:35.822Z,1.70
2018-08-19T13:10:46.671Z,1.70
2018-08-19T13:13:51.635Z,1.97
2018-08-19T13:16:56.591Z,1.70
2018-08-19T13:20:05.324Z,2.13
2018-08-19T13:23:10.267Z,1.90
2018-08-19T13:26:15.190Z,1.73
2018-08-19T13:29:20.118Z,2.33
2018-08-19T13:32:25.064Z,1.67
2018-08-19T13:35:30.030Z,1.60
2018-08-19T13:38:37.174Z,1.90
2018-08-19T13:41:42.184Z,1.87
2018-08-19T13:44:47.116Z,1.67
2018-08-19T13:47:53.301Z,1.90
2018-08-19T13:50:58.257Z,1.60
2018-08-19T13:54:03.232Z,1.70
2018-08-19T13:57:08.186Z,1.80
2018-08-19T14:00:16.468Z,1.60
2018-08-19T14:03:21.496Z,1.90
2018-08-19T14:06:26.524Z,1.90
2018-08-19T14:09:31.498Z,2.10
2018-08-19T14:12:36.454Z,2.00
2018-08-19T14:15:41.433Z,1.90
2018-08-19T14:18:46.405Z,1.83
2018-08-19T14:21:51.403Z,1.90
2018-08-19T14:24:56.382Z,3.50
2018-08-19T14:28:01.365Z,1.90
2018-08-19T14:31:06.388Z,1.97
2018-08-19T14:34:11.380Z,2.33
2018-08-19T14:37:16.369Z,2.33
2018-08-19T14:40:21.486Z,2.03
2018-08-19T14:43:26.325Z,2.23
2018-08-19T14:46:32.365Z,2.43
2018-08-19T14:49:37.405Z,2.40
2018-08-19T14:52:42.449Z,2.90
2018-08-19T14:55:47.457Z,2.30
2018-08-19T14:58:52.436Z,2.40
2018-08-19T15:01:57.364Z,2.37
2018-08-19T15:05:02.353Z,2.80
2018-08-19T15:08:11.897Z,3.17
2018-08-19T15:11:16.832Z,2.87
2018-08-19T15:14:21.832Z,2.67
2018-08-19T15:17:26.812Z,2.60
2018-08-19T15:20:33.118Z,2.73
2018-08-19T15:23:38.058Z,2.50
2018-08-19T15:26:42.985Z,2.60
2018-08-19T15:29:50.533Z,2.53
2018-08-19T15:32:55.818Z,2.70
2018-08-19T15:36:00.378Z,2.90
2018-08-19T15:39:07.048Z,2.73
2018-08-19T15:42:12.008Z,2.87
2018-08-19T15:45:17.160Z,3.30
2018-08-19T15:48:22.141Z,2.87
2018-08-19T15:51:27.077Z,2.67
2018-08-19T15:54:32.034Z,2.67
2018-08-19T15:57:36.985Z,2.57
2018-08-19T16:00:41.985Z,3.07
2018-08-19T16:03:46.958Z,2.73
2018-08-19T16:06:53.445Z,3.13
2018-08-19T16:09:58.449Z,2.87
2018-08-19T16:13:05.573Z,2.57
2018-08-19T16:16:15.437Z,2.87
2018-08-19T16:19:20.533Z,2.43
2018-08-19T16:22:25.492Z,2.80
2018-08-19T16:25:30.517Z,2.63
2018-08-19T16:28:35.525Z,2.83
2018-08-19T16:31:40.781Z,2.80
2018-08-19T16:34:45.793Z,2.90
2018-08-19T16:37:50.824Z,3.10
2018-08-19T16:40:55.825Z,3.00
2018-08-19T16:44:08.973Z,3.33
2018-08-19T16:47:13.961Z,3.03
2018-08-19T16:50:19.038Z,2.90
2018-08-19T16:53:24.001Z,3.00
2018-08-19T16:56:28.962Z,3.27
2018-08-19T16:59:34.361Z,3.60
2018-08-19T17:02:39.342Z,3.23
2018-08-19T17:05:44.276Z,4.07
2018-08-19T17:08:49.269Z,4.27
2018-08-19T17:11:54.581Z,3.00
2018-08-19T17:14:59.540Z,3.30
2018-08-19T17:18:04.494Z,3.40
2018-08-19T17:21:09.489Z,3.47
2018-08-19T17:24:14.446Z,3.27
2018-08-19T17:27:19.377Z,3.23
2018-08-19T17:30:24.352Z,3.13
2018-08-19T17:33:30.521Z,3.57
2018-08-19T17:36:35.470Z,3.20
2018-08-19T17:39:40.540Z,3.20
2018-08-19T17:42:45.403Z,2.83
2018-08-19T17:45:51.153Z,3.07
2018-08-19T17:48:55.978Z,3.03
2018-08-19T17:52:01.013Z,3.07
2018-08-19T17:55:06.002Z,3.17
2018-08-19T17:58:10.922Z,3.70
2018-08-19T18:01:16.232Z,3.33
2018-08-19T18:04:21.548Z,3.33
2018-08-19T18:07:27.585Z,4.03
2018-08-19T18:10:32.537Z,3.70
2018-08-19T18:13:37.452Z,3.50
2018-08-19T18:16:42.361Z,3.07
2018-08-19T18:19:47.292Z,3.50
2018-08-19T18:22:53.656Z,3.70
2018-08-19T18:25:58.621Z,3.20
2018-08-19T18:29:03.636Z,3.40
2018-08-19T18:32:08.653Z,4.00
2018-08-19T18:35:13.645Z,3.27
2018-08-19T18:38:28.773Z,3.20
2018-08-19T18:41:35.201Z,3.50
2018-08-19T18:44:40.136Z,3.53
2018-08-19T18:47:51.399Z,3.67
2018-08-19T18:50:56.357Z,4.03
2018-08-19T18:54:01.595Z,3.20
2018-08-19T18:57:07.555Z,3.33
2018-08-19T19:00:12.497Z,3.50
2018-08-19T19:03:17.458Z,3.60
2018-08-19T19:06:22.421Z,3.60
2018-08-19T19:09:35.847Z,3.67
2018-08-19T19:12:40.754Z,3.63
2018-08-19T19:15:46.505Z,3.77
2018-08-19T19:18:51.801Z,3.73
2018-08-19T19:21:59.520Z,3.60
2018-08-19T19:25:04.474Z,3.63
2018-08-19T19:28:09.426Z,3.67
2018-08-19T19:31:15.640Z,3.60
2018-08-19T19:34:20.633Z,3.97
2018-08-19T19:37:25.530Z,3.67
2018-08-19T19:40:30.862Z,4.47
2018-08-19T19:43:35.768Z,3.97
2018-08-19T19:46:40.690Z,4.27
2018-08-19T19:49:51.390Z,4.07
2018-08-19T19:52:57.012Z,3.70
2018-08-19T19:56:07.585Z,3.97
2018-08-19T19:59:12.509Z,4.23
2018-08-19T20:02:22.393Z,3.90
2018-08-19T20:05:27.300Z,4.00
2018-08-19T20:08:32.213Z,4.10
2018-08-19T20:11:37.990Z,4.23
2018-08-19T20:14:47.500Z,4.07
2018-08-19T20:17:52.411Z,3.80
2018-08-19T20:20:57.366Z,4.10
2018-08-19T20:24:02.600Z,4.20
2018-08-19T20:27:07.924Z,4.77
2018-08-19T20:30:12.860Z,4.60
2018-08-19T20:33:25.217Z,3.60
2018-08-19T20:36:30.149Z,4.40
2018-08-19T20:39:35.070Z,4.53
2018-08-19T20:42:40.020Z,4.20
2018-08-19T20:45:45.432Z,4.40
2018-08-19T20:48:50.341Z,4.00
2018-08-19T20:51:55.804Z,4.23
2018-08-19T20:55:00.704Z,4.13
2018-08-19T20:58:05.668Z,4.27
2018-08-19T21:01:41.937Z,4.40
2018-08-19T21:04:46.889Z,4.07
2018-08-19T21:07:56.940Z,4.10
2018-08-19T21:11:01.869Z,4.40
2018-08-19T21:14:06.805Z,4.73
2018-08-19T21:17:11.744Z,4.67
2018-08-19T21:20:16.764Z,4.50
2018-08-19T21:23:21.684Z,4.50
2018-08-19T21:26:26.610Z,4.37
2018-08-19T21:29:32.017Z,5.00
2018-08-19T21:32:36.937Z,4.23
2018-08-19T21:35:47.768Z,4.40
2018-08-19T21:38:52.705Z,4.00
2018-08-19T21:41:57.687Z,4.37
2018-08-19T21:45:02.707Z,4.20
2018-08-19T21:48:11.650Z,5.10
2018-08-19T21:51:16.580Z,4.57
2018-08-19T21:54:21.508Z,4.60
2018-08-19T21:57:26.448Z,5.50
2018-08-19T22:04:39.736Z,4.80
2018-08-19T22:07:44.665Z,5.03
2018-08-19T22:10:49.616Z,5.33
2018-08-19T22:13:54.516Z,5.03
2018-08-19T22:17:05.269Z,5.20
2018-08-19T22:20:10.180Z,5.03
2018-08-19T22:23:15.069Z,5.20
2018-08-19T22:26:20.748Z,4.97
2018-08-19T22:29:25.678Z,5.33
2018-08-19T22:32:32.541Z,4.97
2018-08-19T22:35:37.445Z,5.43
2018-08-19T22:38:50.224Z,5.37
2018-08-19T22:41:55.135Z,5.03
2018-08-19T22:45:00.047Z,5.33
2018-08-19T22:48:13.004Z,5.00
2018-08-19T22:51:17.958Z,5.37
2018-08-19T22:54:22.857Z,5.50
2018-08-19T22:57:28.021Z,4.77
2018-08-19T23:00:32.996Z,5.10
2018-08-19T23:03:37.924Z,5.33
2018-08-19T23:06:42.872Z,5.93
2018-08-19T23:09:47.826Z,5.20
2018-08-19T23:12:52.739Z,5.20
2018-08-19T23:15:57.677Z,5.53
2018-08-19T23:19:02.589Z,5.07
2018-08-19T23:22:07.553Z,4.90
2018-08-19T23:25:12.492Z,5.27
2018-08-19T23:28:17.679Z,5.57
2018-08-19T23:31:22.629Z,5.07
2018-08-19T23:34:27.738Z,5.30
2018-08-19T23:37:32.672Z,5.30
2018-08-19T23:40:37.649Z,5.07
2018-08-19T23:43:42.574Z,5.67
2018-08-19T23:46:47.512Z,5.00
2018-08-19T23:49:52.420Z,5.10
2018-08-19T23:52:57.352Z,5.10
2018-08-19T23:56:02.321Z,5.20
2018-08-19T23:59:07.244Z,5.30
